Main page
METAR-TAF:

METAR-TAF

Airports :

Arad International Airport

Arad, Romania

latitude: 46-12N, longitude: 021-24E, elevation: 117 m

Current weather observation

The report was made 33 minutes ago, at 18:30 UTC
Wind 6 kt from the Southwest
Temperature 24°C
Humidity 57%
Pressure 1013 hPa
Visibility 10 km or more
no clouds below 1500 m and no cumulonimbus

METAR: LRAR 161830Z 22006KT CAVOK 24/15 Q1013

Time: 22:03 (19:03 UTC)

Forecast

The report was made 2 hours and 3 minutes ago, at 17:00 UTC
Forecast valid from 16 at 18 UTC to 17 at 03 UTC
Wind 8 kt from the West/Southwest
Visibility 10 km or more
no clouds below 1500 m and no cumulonimbus
Probability 40% :
Temporary
from 16 at 23 UTC to 17 at 03 UTC
Visibility: 5000 m
Scattered clouds at a height of 4000 ft, Cumulonimbus.
rain showers

TAF: LRAR 161700Z 1618/1703 24008KT CAVOK PROB40 TEMPO 1623/1703 5000 SHRA SCT040CB

Weather observations and forecasts of more than 4000 airports (METAR and TAF reports).

The available stations are represented by yellow and red dots on the map.

Hover mouse over dot to see the name of the station.

Then click to see weather observations and forecasts.

To change the map : click on the green buttons with a black cross to zoom in, on the green button with a dash to zoom out, or on the green arrows for adjacent maps.


METAR-TAF: